createdAt,value
2022-12-18T00:00:44.816Z,9.27
2022-12-18T00:05:58.479Z,9.23
2022-12-18T00:08:28.677Z,9.63
2022-12-18T00:11:07.011Z,9.67
2022-12-18T00:13:43.620Z,9.10
2022-12-18T00:16:15.035Z,9.70
2022-12-18T00:18:43.299Z,12.53
2022-12-18T00:21:12.942Z,10.13
2022-12-18T00:23:43.655Z,11.07
2022-12-18T00:26:24.676Z,10.97
2022-12-18T00:29:14.780Z,10.57
2022-12-18T00:31:44.709Z,11.07
2022-12-18T00:34:14.176Z,10.80
2022-12-18T00:39:25.688Z,10.83
2022-12-18T00:42:13.476Z,12.23
2022-12-18T00:44:43.172Z,11.67
2022-12-18T00:47:12.161Z,11.80
2022-12-18T00:49:43.978Z,12.03
2022-12-18T00:52:12.575Z,12.10
2022-12-18T00:54:40.880Z,11.07
2022-12-18T00:57:14.013Z,11.20
2022-12-18T00:59:43.810Z,13.00
2022-12-18T01:02:12.968Z,12.27
2022-12-18T01:04:40.448Z,11.87
2022-12-18T01:07:10.398Z,10.30
2022-12-18T01:09:40.425Z,11.70
2022-12-18T01:12:13.556Z,11.93
2022-12-18T01:14:42.994Z,12.20
2022-12-18T01:17:14.223Z,12.00
2022-12-18T01:19:43.043Z,12.03
2022-12-18T01:22:12.469Z,12.17
2022-12-18T01:24:40.877Z,11.67
2022-12-18T01:27:11.793Z,11.97
2022-12-18T01:29:44.231Z,12.00
2022-12-18T01:32:12.972Z,12.07
2022-12-18T01:34:42.965Z,10.73
2022-12-18T01:37:12.727Z,10.33
2022-12-18T01:39:44.290Z,9.50
2022-12-18T01:42:17.418Z,9.73
2022-12-18T01:45:10.178Z,10.83
2022-12-18T01:48:02.864Z,10.47
2022-12-18T01:50:53.725Z,11.70
2022-12-18T01:53:24.151Z,10.07
2022-12-18T01:55:55.603Z,10.63
2022-12-18T01:58:49.787Z,9.97
2022-12-18T02:01:18.154Z,10.53
2022-12-18T02:03:47.782Z,10.73
2022-12-18T02:06:35.538Z,10.27
2022-12-18T02:09:18.409Z,11.13
2022-12-18T02:12:08.605Z,10.70
2022-12-18T02:15:09.765Z,10.20
2022-12-18T02:17:59.992Z,10.40
2022-12-18T02:21:13.557Z,11.30
2022-12-18T02:24:21.179Z,11.23
2022-12-18T02:27:10.094Z,11.73
2022-12-18T02:29:50.541Z,11.97
2022-12-18T02:32:26.960Z,11.97
2022-12-18T02:34:58.176Z,13.00
2022-12-18T02:37:29.469Z,13.20
2022-12-18T02:40:03.596Z,15.37
2022-12-18T02:42:33.407Z,13.13
2022-12-18T02:45:02.924Z,12.80
2022-12-18T02:47:46.945Z,12.20
2022-12-18T02:50:28.118Z,10.50
2022-12-18T02:53:27.194Z,12.53
2022-12-18T02:56:16.610Z,12.00
2022-12-18T02:59:05.573Z,12.07
2022-12-18T03:02:16.061Z,10.93
2022-12-18T03:04:50.379Z,11.77
2022-12-18T03:07:42.609Z,11.37
2022-12-18T03:10:17.193Z,10.80
2022-12-18T03:12:54.170Z,13.00
2022-12-18T03:15:32.870Z,13.23
2022-12-18T03:18:45.745Z,11.43
2022-12-18T03:21:16.431Z,10.63
2022-12-18T03:23:49.341Z,10.80
2022-12-18T03:26:25.773Z,10.47
2022-12-18T03:29:11.097Z,12.60
2022-12-18T03:31:44.208Z,11.40
2022-12-18T03:34:20.829Z,11.47
2022-12-18T03:42:51.937Z,12.57
2022-12-18T03:45:24.779Z,10.67
2022-12-18T03:48:11.275Z,10.57
2022-12-18T03:51:14.360Z,11.73
2022-12-18T03:54:03.697Z,12.90
2022-12-18T03:56:43.681Z,11.80
2022-12-18T03:59:16.050Z,12.83
2022-12-18T04:01:57.059Z,12.67
2022-12-18T04:04:30.367Z,11.93
2022-12-18T04:07:03.599Z,12.77
2022-12-18T04:09:34.980Z,13.10
2022-12-18T04:12:05.932Z,12.20
2022-12-18T04:14:36.658Z,12.83
2022-12-18T04:17:09.942Z,13.10
2022-12-18T04:19:40.489Z,15.40
2022-12-18T04:22:11.503Z,15.13
2022-12-18T04:24:44.275Z,16.30
2022-12-18T04:30:10.286Z,15.17
2022-12-18T04:32:40.112Z,16.27
2022-12-18T04:35:12.164Z,16.93
2022-12-18T04:37:44.092Z,16.87
2022-12-18T04:40:12.477Z,16.53
2022-12-18T04:42:46.966Z,18.33
2022-12-18T04:45:20.517Z,17.70
2022-12-18T04:47:50.996Z,18.37
2022-12-18T04:50:18.413Z,17.00
2022-12-18T04:52:50.176Z,18.43
2022-12-18T04:55:18.619Z,17.53
2022-12-18T04:57:47.272Z,16.57
2022-12-18T05:00:16.246Z,18.07
2022-12-18T05:05:28.364Z,20.37
2022-12-18T05:07:59.219Z,16.53
2022-12-18T05:10:27.976Z,17.33
2022-12-18T05:13:02.497Z,18.63
2022-12-18T05:15:32.318Z,20.13
2022-12-18T05:18:04.143Z,19.57
2022-12-18T05:20:35.015Z,19.33
2022-12-18T05:23:03.919Z,18.63
2022-12-18T05:25:32.304Z,18.50
2022-12-18T05:28:02.660Z,18.97
2022-12-18T05:30:32.930Z,19.73
2022-12-18T05:33:02.842Z,20.07
2022-12-18T05:35:33.156Z,21.63
2022-12-18T05:38:04.380Z,20.40
2022-12-18T05:40:35.637Z,25.00
2022-12-18T05:43:07.559Z,22.03
2022-12-18T05:45:39.173Z,24.73
2022-12-18T05:48:08.822Z,20.50
2022-12-18T05:50:37.266Z,20.77
2022-12-18T05:55:51.341Z,18.70
2022-12-18T05:58:19.042Z,19.27
2022-12-18T06:00:47.406Z,18.57
2022-12-18T06:03:15.027Z,18.27
2022-12-18T06:08:29.732Z,16.17
2022-12-18T06:10:59.397Z,18.53
2022-12-18T06:13:27.826Z,19.37
2022-12-18T06:15:58.120Z,19.07
2022-12-18T06:21:09.123Z,20.77
2022-12-18T06:23:37.178Z,22.50
2022-12-18T06:26:14.866Z,20.07
2022-12-18T06:28:44.796Z,22.00
2022-12-18T06:31:13.675Z,22.53
2022-12-18T06:33:43.502Z,19.10
2022-12-18T06:36:14.118Z,20.40
2022-12-18T06:38:44.489Z,21.03
2022-12-18T06:41:16.839Z,19.17
2022-12-18T06:43:45.585Z,18.37
2022-12-18T06:46:14.399Z,20.63
2022-12-18T06:48:42.901Z,20.20
2022-12-18T06:51:12.850Z,18.73
2022-12-18T06:53:42.721Z,21.80
2022-12-18T06:56:13.217Z,21.83
2022-12-18T06:58:44.513Z,21.57
2022-12-18T07:01:13.222Z,19.70
2022-12-18T07:03:44.966Z,20.60
2022-12-18T07:06:18.344Z,20.60
2022-12-18T07:08:47.932Z,19.60
2022-12-18T07:11:16.629Z,20.47
2022-12-18T07:13:46.763Z,20.27
2022-12-18T07:16:25.659Z,19.37
2022-12-18T07:21:39.541Z,17.83
2022-12-18T07:24:10.638Z,20.23
2022-12-18T07:26:42.664Z,19.67
2022-12-18T07:29:13.393Z,17.17
2022-12-18T07:31:43.520Z,17.67
2022-12-18T07:34:20.337Z,18.43
2022-12-18T07:36:50.815Z,18.63
2022-12-18T07:39:23.683Z,18.13
2022-12-18T07:42:13.588Z,19.37
2022-12-18T07:44:45.043Z,20.83
2022-12-18T07:47:12.820Z,21.27
2022-12-18T07:49:43.994Z,19.83
2022-12-18T07:52:25.927Z,20.63
2022-12-18T07:54:54.771Z,22.97
2022-12-18T07:57:48.956Z,20.97
2022-12-18T08:00:13.648Z,20.70
2022-12-18T08:02:43.714Z,21.30
2022-12-18T08:05:13.882Z,20.23
2022-12-18T08:07:44.796Z,25.80
2022-12-18T08:10:13.550Z,22.87
2022-12-18T08:12:44.160Z,21.57
2022-12-18T08:15:14.246Z,21.77
2022-12-18T08:17:41.883Z,18.70
2022-12-18T08:20:14.043Z,22.63
2022-12-18T08:22:45.636Z,20.53
2022-12-18T08:25:13.048Z,23.93
2022-12-18T08:27:44.448Z,22.93
2022-12-18T08:30:15.116Z,19.93
2022-12-18T08:32:43.957Z,24.30
2022-12-18T08:35:14.803Z,19.90
2022-12-18T08:37:46.115Z,21.70
2022-12-18T08:40:17.265Z,25.03
2022-12-18T08:43:05.181Z,21.73
2022-12-18T08:45:42.988Z,21.13
2022-12-18T08:48:12.164Z,19.73
2022-12-18T08:53:23.531Z,22.43
2022-12-18T08:55:53.426Z,22.63
2022-12-18T08:58:24.677Z,21.10
2022-12-18T09:00:55.374Z,21.80
2022-12-18T09:03:25.104Z,23.33
2022-12-18T09:05:52.996Z,22.43
2022-12-18T09:08:24.303Z,20.13
2022-12-18T09:10:54.488Z,21.80
2022-12-18T09:13:23.272Z,20.23
2022-12-18T09:15:55.045Z,22.13
2022-12-18T09:18:26.776Z,22.23
2022-12-18T09:20:58.282Z,24.07
2022-12-18T09:23:25.824Z,24.60
2022-12-18T09:26:03.330Z,22.80
2022-12-18T09:28:37.384Z,24.40
2022-12-18T09:34:00.243Z,30.87
2022-12-18T09:36:30.047Z,31.00
2022-12-18T09:39:01.670Z,31.20
2022-12-18T09:41:42.147Z,30.80
2022-12-18T09:44:25.985Z,36.37
2022-12-18T09:47:26.031Z,49.37
2022-12-18T09:50:03.589Z,56.83
2022-12-18T09:52:38.746Z,55.40
2022-12-18T09:55:50.222Z,39.03
2022-12-18T09:58:43.272Z,39.73
2022-12-18T10:01:24.190Z,38.37
2022-12-18T10:03:54.040Z,48.70
2022-12-18T10:06:55.464Z,51.93
2022-12-18T10:09:46.909Z,41.83
2022-12-18T10:13:13.779Z,38.83
2022-12-18T10:15:57.909Z,39.23
2022-12-18T10:18:45.131Z,35.20
2022-12-18T10:21:21.729Z,34.50
2022-12-18T10:24:28.383Z,36.00
2022-12-18T10:27:17.297Z,39.37
2022-12-18T10:29:47.214Z,38.37
2022-12-18T10:32:25.562Z,36.60
2022-12-18T10:35:00.674Z,37.33
2022-12-18T10:37:37.895Z,36.23
2022-12-18T10:40:22.000Z,31.27
2022-12-18T10:43:19.532Z,34.23
2022-12-18T10:46:14.215Z,32.53
2022-12-18T10:48:50.060Z,33.97
2022-12-18T10:51:31.413Z,33.00
2022-12-18T10:54:18.129Z,35.30
2022-12-18T10:56:46.282Z,32.70
2022-12-18T10:59:17.546Z,33.47
2022-12-18T11:01:59.764Z,37.33
2022-12-18T11:04:39.107Z,35.47
2022-12-18T11:07:17.564Z,33.23
2022-12-18T11:10:01.706Z,36.20
2022-12-18T11:12:30.841Z,35.87
2022-12-18T11:15:13.038Z,37.20
2022-12-18T11:17:43.634Z,34.50
2022-12-18T11:20:36.853Z,33.97
2022-12-18T11:23:14.069Z,34.77
2022-12-18T11:26:01.243Z,33.20
2022-12-18T11:28:44.874Z,31.73
2022-12-18T11:31:29.763Z,32.93
2022-12-18T11:34:33.624Z,33.63
2022-12-18T11:37:04.604Z,34.17
2022-12-18T11:39:41.047Z,35.40
2022-12-18T11:42:40.521Z,32.43
2022-12-18T11:45:45.948Z,36.70
2022-12-18T11:48:44.771Z,34.93
2022-12-18T11:51:27.064Z,34.50
2022-12-18T11:53:59.802Z,36.87
2022-12-18T11:56:52.920Z,34.90
2022-12-18T11:59:47.392Z,36.77
2022-12-18T12:02:47.109Z,34.07
2022-12-18T12:05:53.228Z,33.40
2022-12-18T12:08:49.956Z,34.53
2022-12-18T12:11:55.248Z,36.23
2022-12-18T12:14:44.735Z,34.67
2022-12-18T12:18:09.647Z,33.43
2022-12-18T12:21:09.008Z,31.97
2022-12-18T12:24:03.596Z,31.90
2022-12-18T12:26:58.743Z,33.97
2022-12-18T12:30:06.024Z,34.30
2022-12-18T12:33:00.207Z,36.00
2022-12-18T12:35:52.148Z,36.87
2022-12-18T12:38:29.832Z,35.00
2022-12-18T12:41:29.359Z,35.00
2022-12-18T12:44:02.060Z,39.23
2022-12-18T12:46:35.099Z,37.00
2022-12-18T12:49:05.385Z,35.80
2022-12-18T12:51:37.609Z,33.00
2022-12-18T12:54:21.511Z,32.13
2022-12-18T12:57:25.116Z,31.23
2022-12-18T13:00:25.278Z,34.53
2022-12-18T13:03:05.165Z,31.67
2022-12-18T13:05:55.100Z,36.47
2022-12-18T13:08:27.574Z,36.47
2022-12-18T13:11:19.656Z,35.00
2022-12-18T13:14:04.073Z,37.80
2022-12-18T13:16:32.652Z,37.10
2022-12-18T13:19:02.901Z,35.80
2022-12-18T13:21:39.868Z,36.17
2022-12-18T13:24:30.240Z,36.90
2022-12-18T13:27:02.690Z,33.23
2022-12-18T13:29:45.956Z,35.03
2022-12-18T13:32:28.780Z,37.03
2022-12-18T13:35:38.666Z,35.77
2022-12-18T13:38:32.900Z,40.60
2022-12-18T13:41:21.959Z,34.27
2022-12-18T13:43:55.283Z,35.53
2022-12-18T13:46:32.215Z,35.70
2022-12-18T13:49:24.219Z,38.33
2022-12-18T13:51:56.762Z,37.47
2022-12-18T13:54:46.123Z,35.70
2022-12-18T13:57:39.839Z,36.47
2022-12-18T14:00:30.316Z,36.13
2022-12-18T14:02:59.574Z,34.33
2022-12-18T14:05:38.607Z,34.20
2022-12-18T14:08:15.237Z,35.20
2022-12-18T14:10:48.547Z,33.47
2022-12-18T14:13:29.677Z,34.93
2022-12-18T14:15:59.182Z,36.97
2022-12-18T14:18:40.162Z,36.17
2022-12-18T14:21:29.296Z,35.80
2022-12-18T14:24:19.715Z,34.77
2022-12-18T14:26:53.218Z,33.00
2022-12-18T14:29:32.285Z,40.47
2022-12-18T14:32:19.041Z,39.13
2022-12-18T14:34:56.475Z,37.27
2022-12-18T14:40:23.392Z,38.27
2022-12-18T14:42:54.906Z,37.60
2022-12-18T14:45:44.991Z,40.30
2022-12-18T14:48:15.534Z,37.47
2022-12-18T14:50:59.769Z,38.10
2022-12-18T14:53:50.534Z,39.43
2022-12-18T14:56:37.289Z,38.23
2022-12-18T14:59:25.859Z,36.90
2022-12-18T15:02:02.843Z,38.93
2022-12-18T15:04:37.578Z,40.30
2022-12-18T15:07:24.096Z,41.27
2022-12-18T15:10:22.679Z,40.20
2022-12-18T15:13:04.880Z,40.70
2022-12-18T15:15:40.675Z,44.27
2022-12-18T15:21:01.524Z,45.67
2022-12-18T15:23:37.820Z,43.00
2022-12-18T15:26:15.582Z,44.87
2022-12-18T15:29:01.899Z,43.87
2022-12-18T15:31:37.333Z,43.73
2022-12-18T15:34:15.079Z,46.97
2022-12-18T15:36:44.201Z,46.13
2022-12-18T15:39:25.982Z,46.27
2022-12-18T15:42:18.704Z,47.13
2022-12-18T15:44:54.858Z,47.77
2022-12-18T15:50:16.234Z,49.60
2022-12-18T15:52:49.428Z,48.13
2022-12-18T15:55:44.188Z,49.50
2022-12-18T15:58:19.466Z,49.93
2022-12-18T16:03:33.825Z,47.43
2022-12-18T16:06:04.108Z,50.53
2022-12-18T16:08:35.356Z,43.17
2022-12-18T16:11:06.695Z,45.97
2022-12-18T16:13:35.559Z,47.50
2022-12-18T16:16:11.153Z,46.60
2022-12-18T16:21:23.541Z,47.63
2022-12-18T16:23:59.755Z,46.27
2022-12-18T16:26:31.873Z,43.73
2022-12-18T16:31:43.540Z,39.97
2022-12-18T16:34:24.963Z,42.03
2022-12-18T16:37:05.824Z,44.40
2022-12-18T16:42:23.028Z,41.17
2022-12-18T16:44:58.967Z,38.40
2022-12-18T16:47:28.502Z,38.80
2022-12-18T16:50:03.116Z,35.87
2022-12-18T16:52:33.976Z,37.43
2022-12-18T16:55:09.923Z,35.97
2022-12-18T16:57:41.789Z,39.17
2022-12-18T17:00:11.274Z,36.47
2022-12-18T17:02:40.960Z,39.13
2022-12-18T17:05:12.769Z,37.03
2022-12-18T17:07:43.218Z,33.73
2022-12-18T17:10:12.719Z,34.53
2022-12-18T17:12:44.444Z,31.87
2022-12-18T17:15:18.958Z,36.87
2022-12-18T17:18:01.729Z,35.33
2022-12-18T17:20:36.071Z,36.60
2022-12-18T17:23:07.800Z,34.23
2022-12-18T17:25:41.211Z,33.77
2022-12-18T17:28:10.891Z,33.77
2022-12-18T17:30:41.576Z,32.00
2022-12-18T17:33:11.744Z,32.93
2022-12-18T17:35:41.423Z,32.83
2022-12-18T17:38:20.423Z,32.23
2022-12-18T17:43:36.426Z,33.67
2022-12-18T17:46:09.465Z,33.83
2022-12-18T17:48:37.456Z,33.47
2022-12-18T17:51:10.428Z,35.93
2022-12-18T17:53:42.718Z,34.77
2022-12-18T17:56:14.806Z,35.57
2022-12-18T17:58:49.328Z,34.30
2022-12-18T18:01:23.966Z,34.63
2022-12-18T18:03:58.473Z,36.47
2022-12-18T18:06:28.955Z,37.33
2022-12-18T18:09:01.208Z,34.20
2022-12-18T18:11:57.071Z,30.23
2022-12-18T18:14:31.328Z,37.30
2022-12-18T18:17:04.664Z,35.10
2022-12-18T18:19:34.587Z,33.37
2022-12-18T18:22:05.425Z,32.43
2022-12-18T18:24:35.383Z,30.33
2022-12-18T18:27:05.891Z,29.77
2022-12-18T18:29:43.429Z,31.10
2022-12-18T18:32:24.028Z,30.93
2022-12-18T18:35:05.497Z,30.40
2022-12-18T18:37:38.312Z,29.63
2022-12-18T18:40:12.599Z,30.43
2022-12-18T18:42:41.172Z,28.63
2022-12-18T18:45:18.930Z,28.07
2022-12-18T18:47:55.165Z,26.67
2022-12-18T18:50:24.642Z,30.40
2022-12-18T18:52:54.036Z,31.50
2022-12-18T18:55:25.604Z,29.43
2022-12-18T18:57:55.357Z,30.10
2022-12-18T19:06:02.544Z,27.83
2022-12-18T19:08:37.004Z,27.87
2022-12-18T19:11:36.339Z,31.33
2022-12-18T19:14:10.342Z,29.17
2022-12-18T19:16:41.415Z,29.17
2022-12-18T19:19:36.400Z,28.67
2022-12-18T19:22:06.080Z,30.27
2022-12-18T19:24:36.455Z,29.63
2022-12-18T19:27:11.428Z,26.73
2022-12-18T19:29:42.671Z,28.00
2022-12-18T19:32:13.255Z,27.70
2022-12-18T19:34:46.099Z,28.57
2022-12-18T19:37:17.870Z,28.73
2022-12-18T19:39:49.384Z,29.80
2022-12-18T19:42:25.532Z,32.73
2022-12-18T19:44:58.906Z,32.10
2022-12-18T19:47:28.105Z,28.53
2022-12-18T19:52:46.139Z,31.20
2022-12-18T19:55:16.772Z,31.57
2022-12-18T19:57:49.112Z,31.30
2022-12-18T20:00:20.514Z,28.63
2022-12-18T20:02:58.233Z,32.33
2022-12-18T20:05:34.854Z,31.83
2022-12-18T20:08:05.904Z,33.43
2022-12-18T20:10:34.979Z,33.13
2022-12-18T20:13:07.121Z,31.47
2022-12-18T20:15:41.846Z,33.40
2022-12-18T20:18:16.183Z,34.77
2022-12-18T20:20:53.330Z,31.83
2022-12-18T20:23:25.486Z,33.77
2022-12-18T20:25:55.107Z,34.03
2022-12-18T20:28:25.938Z,34.63
2022-12-18T20:31:06.075Z,33.80
2022-12-18T20:33:37.792Z,32.40
2022-12-18T20:36:14.340Z,31.87
2022-12-18T20:38:47.041Z,34.07
2022-12-18T20:41:22.945Z,34.83
2022-12-18T20:43:52.313Z,31.57
2022-12-18T20:46:23.773Z,35.27
2022-12-18T20:48:53.373Z,32.80
2022-12-18T20:51:24.066Z,35.47
2022-12-18T20:53:55.650Z,34.40
2022-12-18T20:56:24.222Z,33.37
2022-12-18T20:59:03.648Z,36.80
2022-12-18T21:01:32.592Z,31.43
2022-12-18T21:04:03.892Z,35.70
2022-12-18T21:06:32.465Z,35.40
2022-12-18T21:09:02.186Z,35.90
2022-12-18T21:11:52.192Z,35.47
2022-12-18T21:14:27.440Z,35.13
2022-12-18T21:17:00.941Z,34.67
2022-12-18T21:19:33.757Z,34.13
2022-12-18T21:22:03.716Z,35.77
2022-12-18T21:24:33.147Z,34.03
2022-12-18T21:27:03.393Z,35.23
2022-12-18T21:29:32.720Z,34.87
2022-12-18T21:32:03.760Z,34.33
2022-12-18T21:34:34.291Z,33.83
2022-12-18T21:37:07.041Z,35.67
2022-12-18T21:39:35.636Z,34.53
2022-12-18T21:42:23.988Z,35.33
2022-12-18T21:44:51.633Z,37.40
2022-12-18T21:47:22.724Z,34.07
2022-12-18T21:49:55.164Z,36.53
2022-12-18T21:52:31.512Z,38.37
2022-12-18T21:55:08.413Z,36.47
2022-12-18T21:57:41.433Z,36.47
2022-12-18T22:00:18.928Z,36.47
2022-12-18T22:03:17.087Z,39.17
2022-12-18T22:05:41.450Z,37.93
2022-12-18T22:08:11.134Z,37.63
2022-12-18T22:10:40.984Z,37.07
2022-12-18T22:13:09.651Z,39.40
2022-12-18T22:15:41.038Z,39.83
2022-12-18T22:18:10.002Z,37.60
2022-12-18T22:20:37.311Z,35.57
2022-12-18T22:23:06.125Z,36.10
2022-12-18T22:25:36.294Z,35.87
2022-12-18T22:28:28.990Z,37.17
2022-12-18T22:30:59.702Z,37.80
2022-12-18T22:33:31.485Z,34.77
2022-12-18T22:36:07.927Z,35.23
2022-12-18T22:38:36.405Z,37.13
2022-12-18T22:41:06.863Z,34.93
2022-12-18T22:43:35.837Z,34.40
2022-12-18T22:46:05.079Z,33.77
2022-12-18T22:48:33.876Z,35.93
2022-12-18T22:51:02.713Z,36.03
2022-12-18T22:53:33.426Z,37.57
2022-12-18T22:56:05.161Z,36.33
2022-12-18T22:58:33.606Z,36.83
2022-12-18T23:01:02.891Z,36.27
2022-12-18T23:03:34.122Z,35.57
2022-12-18T23:06:07.653Z,36.53
2022-12-18T23:08:36.316Z,34.70
2022-12-18T23:11:07.353Z,36.73
2022-12-18T23:13:36.329Z,35.20
2022-12-18T23:16:12.317Z,36.07
2022-12-18T23:18:40.044Z,36.23
2022-12-18T23:21:14.716Z,34.50
2022-12-18T23:23:46.896Z,32.03
2022-12-18T23:26:24.269Z,35.73
2022-12-18T23:29:01.515Z,33.77
2022-12-18T23:31:35.383Z,32.03
2022-12-18T23:34:05.528Z,33.87
2022-12-18T23:36:45.755Z,33.07
2022-12-18T23:39:28.662Z,36.03
2022-12-18T23:42:01.003Z,32.47
2022-12-18T23:44:28.522Z,33.47
2022-12-18T23:46:58.921Z,33.30
2022-12-18T23:49:26.315Z,33.80
2022-12-18T23:51:55.247Z,31.50
2022-12-18T23:54:31.712Z,32.00
2022-12-18T23:57:02.608Z,31.77
2022-12-18T23:59:33.359Z,31.53
